sensor_id;sensor_type;location;lat;lon;timestamp;pressure;altitude;pressure_sealevel;temperature
59339;BMP280;45117;50.960;5.500;2022-10-16T00:00:29;100222.38;;;13.40
59339;BMP280;45117;50.960;5.500;2022-10-16T00:02:56;100213.97;;;13.38
59339;BMP280;45117;50.960;5.500;2022-10-16T00:05:24;100210.41;;;13.41
59339;BMP280;45117;50.960;5.500;2022-10-16T00:07:50;100208.91;;;13.40
59339;BMP280;45117;50.960;5.500;2022-10-16T00:10:16;100208.25;;;13.36
59339;BMP280;45117;50.960;5.500;2022-10-16T00:12:43;100205.38;;;13.43
59339;BMP280;45117;50.960;5.500;2022-10-16T00:15:09;100202.78;;;13.39
59339;BMP280;45117;50.960;5.500;2022-10-16T00:17:36;100206.09;;;13.31
59339;BMP280;45117;50.960;5.500;2022-10-16T00:20:03;100197.56;;;13.32
59339;BMP280;45117;50.960;5.500;2022-10-16T00:22:32;100198.41;;;13.29
59339;BMP280;45117;50.960;5.500;2022-10-16T00:24:59;100209.31;;;13.26
59339;BMP280;45117;50.960;5.500;2022-10-16T00:27:25;100191.88;;;13.30
59339;BMP280;45117;50.960;5.500;2022-10-16T00:29:52;100187.22;;;13.31
59339;BMP280;45117;50.960;5.500;2022-10-16T00:32:19;100203.59;;;13.23
59339;BMP280;45117;50.960;5.500;2022-10-16T00:34:46;100211.03;;;13.19
59339;BMP280;45117;50.960;5.500;2022-10-16T00:37:13;100215.94;;;13.21
59339;BMP280;45117;50.960;5.500;2022-10-16T00:39:40;100227.63;;;13.18
59339;BMP280;45117;50.960;5.500;2022-10-16T00:42:10;100225.31;;;13.16
59339;BMP280;45117;50.960;5.500;2022-10-16T00:44:46;100235.06;;;13.27
59339;BMP280;45117;50.960;5.500;2022-10-16T00:47:19;100240.47;;;13.27
59339;BMP280;45117;50.960;5.500;2022-10-16T00:49:47;100238.97;;;13.26
59339;BMP280;45117;50.960;5.500;2022-10-16T00:52:14;100230.22;;;13.21
59339;BMP280;45117;50.960;5.500;2022-10-16T00:54:42;100233.81;;;13.31
59339;BMP280;45117;50.960;5.500;2022-10-16T00:57:09;100232.69;;;13.29
59339;BMP280;45117;50.960;5.500;2022-10-16T00:59:38;100229.56;;;13.17
59339;BMP280;45117;50.960;5.500;2022-10-16T01:02:08;100237.13;;;13.22
59339;BMP280;45117;50.960;5.500;2022-10-16T01:04:37;100232.13;;;13.21
59339;BMP280;45117;50.960;5.500;2022-10-16T01:07:11;100244.84;;;13.20
59339;BMP280;45117;50.960;5.500;2022-10-16T01:09:47;100242.28;;;13.17
59339;BMP280;45117;50.960;5.500;2022-10-16T01:12:20;100236.09;;;13.16
59339;BMP280;45117;50.960;5.500;2022-10-16T01:14:53;100238.56;;;13.11
59339;BMP280;45117;50.960;5.500;2022-10-16T01:17:23;100253.41;;;13.03
59339;BMP280;45117;50.960;5.500;2022-10-16T01:20:03;100241.03;;;13.05
59339;BMP280;45117;50.960;5.500;2022-10-16T01:22:38;100243.47;;;13.00
59339;BMP280;45117;50.960;5.500;2022-10-16T01:25:11;100243.16;;;12.98
59339;BMP280;45117;50.960;5.500;2022-10-16T01:27:40;100245.41;;;12.99
59339;BMP280;45117;50.960;5.500;2022-10-16T01:30:13;100245.69;;;13.05
59339;BMP280;45117;50.960;5.500;2022-10-16T01:32:45;100253.06;;;13.01
59339;BMP280;45117;50.960;5.500;2022-10-16T01:35:16;100242.72;;;12.99
59339;BMP280;45117;50.960;5.500;2022-10-16T01:37:49;100241.66;;;12.97
59339;BMP280;45117;50.960;5.500;2022-10-16T01:40:19;100251.31;;;12.94
59339;BMP280;45117;50.960;5.500;2022-10-16T01:42:51;100261.78;;;12.92
59339;BMP280;45117;50.960;5.500;2022-10-16T01:45:19;100252.81;;;12.95
59339;BMP280;45117;50.960;5.500;2022-10-16T01:47:47;100242.03;;;12.95
59339;BMP280;45117;50.960;5.500;2022-10-16T01:50:16;100242.78;;;12.95
59339;BMP280;45117;50.960;5.500;2022-10-16T01:52:46;100252.16;;;12.91
59339;BMP280;45117;50.960;5.500;2022-10-16T01:55:18;100249.06;;;12.92
59339;BMP280;45117;50.960;5.500;2022-10-16T01:57:49;100248.19;;;12.95
59339;BMP280;45117;50.960;5.500;2022-10-16T02:00:17;100241.22;;;12.98
59339;BMP280;45117;50.960;5.500;2022-10-16T02:02:48;100243.75;;;12.89
59339;BMP280;45117;50.960;5.500;2022-10-16T02:05:20;100246.03;;;12.90
59339;BMP280;45117;50.960;5.500;2022-10-16T02:07:48;100246.22;;;12.83
59339;BMP280;45117;50.960;5.500;2022-10-16T02:10:15;100239.28;;;12.82
59339;BMP280;45117;50.960;5.500;2022-10-16T02:12:45;100250.00;;;12.86
59339;BMP280;45117;50.960;5.500;2022-10-16T02:15:15;100242.34;;;12.84
59339;BMP280;45117;50.960;5.500;2022-10-16T02:17:42;100245.09;;;12.81
59339;BMP280;45117;50.960;5.500;2022-10-16T02:20:09;100252.00;;;12.82
59339;BMP280;45117;50.960;5.500;2022-10-16T02:22:39;100247.47;;;12.79
59339;BMP280;45117;50.960;5.500;2022-10-16T02:25:09;100254.78;;;12.78
59339;BMP280;45117;50.960;5.500;2022-10-16T02:27:41;100257.38;;;12.82
59339;BMP280;45117;50.960;5.500;2022-10-16T02:30:13;100254.41;;;12.80
59339;BMP280;45117;50.960;5.500;2022-10-16T02:32:44;100258.34;;;12.75
59339;BMP280;45117;50.960;5.500;2022-10-16T02:35:13;100271.38;;;12.77
59339;BMP280;45117;50.960;5.500;2022-10-16T02:37:40;100268.59;;;12.80
59339;BMP280;45117;50.960;5.500;2022-10-16T02:40:08;100257.97;;;12.73
59339;BMP280;45117;50.960;5.500;2022-10-16T02:42:37;100255.44;;;12.82
59339;BMP280;45117;50.960;5.500;2022-10-16T02:45:04;100266.31;;;12.79
59339;BMP280;45117;50.960;5.500;2022-10-16T02:47:31;100262.88;;;12.78
59339;BMP280;45117;50.960;5.500;2022-10-16T02:49:59;100249.41;;;12.78
59339;BMP280;45117;50.960;5.500;2022-10-16T02:52:26;100250.66;;;12.74
59339;BMP280;45117;50.960;5.500;2022-10-16T02:54:52;100255.22;;;12.77
59339;BMP280;45117;50.960;5.500;2022-10-16T02:57:18;100260.59;;;12.77
59339;BMP280;45117;50.960;5.500;2022-10-16T02:59:45;100244.78;;;12.79
59339;BMP280;45117;50.960;5.500;2022-10-16T03:02:11;100250.16;;;12.79
59339;BMP280;45117;50.960;5.500;2022-10-16T03:04:38;100251.34;;;12.78
59339;BMP280;45117;50.960;5.500;2022-10-16T03:07:06;100247.13;;;12.77
59339;BMP280;45117;50.960;5.500;2022-10-16T03:09:32;100246.63;;;12.82
59339;BMP280;45117;50.960;5.500;2022-10-16T03:11:59;100263.28;;;12.77
59339;BMP280;45117;50.960;5.500;2022-10-16T03:14:25;100262.19;;;12.74
59339;BMP280;45117;50.960;5.500;2022-10-16T03:16:52;100259.63;;;12.71
59339;BMP280;45117;50.960;5.500;2022-10-16T03:19:18;100257.25;;;12.73
59339;BMP280;45117;50.960;5.500;2022-10-16T03:21:45;100268.84;;;12.70
59339;BMP280;45117;50.960;5.500;2022-10-16T03:24:13;100261.88;;;12.72
59339;BMP280;45117;50.960;5.500;2022-10-16T03:26:39;100261.34;;;12.61
59339;BMP280;45117;50.960;5.500;2022-10-16T03:29:06;100272.06;;;12.64
59339;BMP280;45117;50.960;5.500;2022-10-16T03:31:33;100278.19;;;12.65
59339;BMP280;45117;50.960;5.500;2022-10-16T03:33:59;100284.06;;;12.60
59339;BMP280;45117;50.960;5.500;2022-10-16T03:36:26;100288.63;;;12.63
59339;BMP280;45117;50.960;5.500;2022-10-16T03:38:52;100292.41;;;12.65
59339;BMP280;45117;50.960;5.500;2022-10-16T03:41:20;100295.03;;;12.69
59339;BMP280;45117;50.960;5.500;2022-10-16T03:43:46;100296.63;;;12.66
59339;BMP280;45117;50.960;5.500;2022-10-16T03:46:13;100292.47;;;12.62
59339;BMP280;45117;50.960;5.500;2022-10-16T03:48:39;100289.03;;;12.61
59339;BMP280;45117;50.960;5.500;2022-10-16T03:51:06;100295.97;;;12.62
59339;BMP280;45117;50.960;5.500;2022-10-16T03:53:32;100300.16;;;12.63
59339;BMP280;45117;50.960;5.500;2022-10-16T03:55:59;100298.66;;;12.62
59339;BMP280;45117;50.960;5.500;2022-10-16T03:58:27;100307.06;;;12.64
59339;BMP280;45117;50.960;5.500;2022-10-16T04:00:53;100300.56;;;12.62
59339;BMP280;45117;50.960;5.500;2022-10-16T04:03:20;100311.28;;;12.65
59339;BMP280;45117;50.960;5.500;2022-10-16T04:05:46;100317.06;;;12.64
59339;BMP280;45117;50.960;5.500;2022-10-16T04:08:13;100300.56;;;12.62
59339;BMP280;45117;50.960;5.500;2022-10-16T04:10:39;100310.94;;;12.63
59339;BMP280;45117;50.960;5.500;2022-10-16T04:13:08;100313.63;;;12.63
59339;BMP280;45117;50.960;5.500;2022-10-16T04:15:36;100321.19;;;12.69
59339;BMP280;45117;50.960;5.500;2022-10-16T04:18:03;100326.34;;;12.63
59339;BMP280;45117;50.960;5.500;2022-10-16T04:20:29;100335.84;;;12.68
59339;BMP280;45117;50.960;5.500;2022-10-16T04:22:57;100330.13;;;12.65
59339;BMP280;45117;50.960;5.500;2022-10-16T04:25:24;100334.31;;;12.66
59339;BMP280;45117;50.960;5.500;2022-10-16T04:27:52;100334.41;;;12.63
59339;BMP280;45117;50.960;5.500;2022-10-16T04:30:18;100338.97;;;12.66
59339;BMP280;45117;50.960;5.500;2022-10-16T04:32:49;100339.28;;;12.68
59339;BMP280;45117;50.960;5.500;2022-10-16T04:35:15;100331.97;;;12.69
59339;BMP280;45117;50.960;5.500;2022-10-16T04:37:42;100343.50;;;12.69
59339;BMP280;45117;50.960;5.500;2022-10-16T04:40:09;100338.19;;;12.65
59339;BMP280;45117;50.960;5.500;2022-10-16T04:42:36;100347.13;;;12.62
59339;BMP280;45117;50.960;5.500;2022-10-16T04:45:03;100342.06;;;12.64
59339;BMP280;45117;50.960;5.500;2022-10-16T04:47:29;100344.44;;;12.62
59339;BMP280;45117;50.960;5.500;2022-10-16T04:49:57;100349.81;;;12.62
59339;BMP280;45117;50.960;5.500;2022-10-16T04:52:26;100341.75;;;12.62
59339;BMP280;45117;50.960;5.500;2022-10-16T04:54:53;100336.75;;;12.61
59339;BMP280;45117;50.960;5.500;2022-10-16T04:57:20;100343.59;;;12.65
59339;BMP280;45117;50.960;5.500;2022-10-16T04:59:47;100340.56;;;12.63
59339;BMP280;45117;50.960;5.500;2022-10-16T05:02:13;100342.75;;;12.69
59339;BMP280;45117;50.960;5.500;2022-10-16T05:04:40;100341.22;;;12.68
59339;BMP280;45117;50.960;5.500;2022-10-16T05:07:08;100345.44;;;12.69
59339;BMP280;45117;50.960;5.500;2022-10-16T05:09:34;100345.78;;;12.71
59339;BMP280;45117;50.960;5.500;2022-10-16T05:12:01;100362.72;;;12.71
59339;BMP280;45117;50.960;5.500;2022-10-16T05:14:28;100357.22;;;12.75
59339;BMP280;45117;50.960;5.500;2022-10-16T05:16:55;100371.09;;;12.73
59339;BMP280;45117;50.960;5.500;2022-10-16T05:19:21;100369.66;;;12.69
59339;BMP280;45117;50.960;5.500;2022-10-16T05:21:48;100360.16;;;12.64
59339;BMP280;45117;50.960;5.500;2022-10-16T05:24:16;100362.84;;;12.64
59339;BMP280;45117;50.960;5.500;2022-10-16T05:26:42;100370.94;;;12.64
59339;BMP280;45117;50.960;5.500;2022-10-16T05:29:09;100379.00;;;12.64
59339;BMP280;45117;50.960;5.500;2022-10-16T05:31:35;100382.81;;;12.66
59339;BMP280;45117;50.960;5.500;2022-10-16T05:34:02;100380.53;;;12.65
59339;BMP280;45117;50.960;5.500;2022-10-16T05:36:29;100392.41;;;12.68
59339;BMP280;45117;50.960;5.500;2022-10-16T05:38:55;100396.59;;;12.69
59339;BMP280;45117;50.960;5.500;2022-10-16T05:41:23;100399.81;;;12.63
59339;BMP280;45117;50.960;5.500;2022-10-16T05:43:51;100394.06;;;12.61
59339;BMP280;45117;50.960;5.500;2022-10-16T05:46:18;100394.41;;;12.63
59339;BMP280;45117;50.960;5.500;2022-10-16T05:48:44;100400.97;;;12.62
59339;BMP280;45117;50.960;5.500;2022-10-16T05:51:12;100411.38;;;12.60
59339;BMP280;45117;50.960;5.500;2022-10-16T05:53:39;100414.03;;;12.64
59339;BMP280;45117;50.960;5.500;2022-10-16T05:56:09;100411.75;;;12.62
59339;BMP280;45117;50.960;5.500;2022-10-16T05:58:38;100421.53;;;12.73
59339;BMP280;45117;50.960;5.500;2022-10-16T06:01:08;100423.91;;;12.71
59339;BMP280;45117;50.960;5.500;2022-10-16T06:03:35;100424.28;;;12.69
59339;BMP280;45117;50.960;5.500;2022-10-16T06:06:08;100433.56;;;12.68
59339;BMP280;45117;50.960;5.500;2022-10-16T06:08:34;100437.91;;;12.62
59339;BMP280;45117;50.960;5.500;2022-10-16T06:11:01;100440.88;;;12.68
59339;BMP280;45117;50.960;5.500;2022-10-16T06:13:28;100446.25;;;12.68
59339;BMP280;45117;50.960;5.500;2022-10-16T06:15:56;100447.53;;;12.63
59339;BMP280;45117;50.960;5.500;2022-10-16T06:18:23;100453.28;;;12.61
59339;BMP280;45117;50.960;5.500;2022-10-16T06:20:50;100453.38;;;12.58
59339;BMP280;45117;50.960;5.500;2022-10-16T06:23:16;100454.00;;;12.65
59339;BMP280;45117;50.960;5.500;2022-10-16T06:25:43;100454.69;;;12.70
59339;BMP280;45117;50.960;5.500;2022-10-16T06:28:09;100451.78;;;12.60
59339;BMP280;45117;50.960;5.500;2022-10-16T06:30:36;100455.31;;;12.57
59339;BMP280;45117;50.960;5.500;2022-10-16T06:33:04;100470.72;;;12.57
59339;BMP280;45117;50.960;5.500;2022-10-16T06:35:30;100468.69;;;12.61
59339;BMP280;45117;50.960;5.500;2022-10-16T06:37:58;100471.47;;;12.57
59339;BMP280;45117;50.960;5.500;2022-10-16T06:40:24;100481.41;;;12.60
59339;BMP280;45117;50.960;5.500;2022-10-16T06:42:51;100470.22;;;12.62
59339;BMP280;45117;50.960;5.500;2022-10-16T06:45:17;100479.41;;;12.64
59339;BMP280;45117;50.960;5.500;2022-10-16T06:47:44;100487.00;;;12.70
59339;BMP280;45117;50.960;5.500;2022-10-16T06:50:12;100487.50;;;12.64
59339;BMP280;45117;50.960;5.500;2022-10-16T06:52:38;100498.75;;;12.59
59339;BMP280;45117;50.960;5.500;2022-10-16T06:55:05;100500.47;;;12.70
59339;BMP280;45117;50.960;5.500;2022-10-16T06:57:32;100499.91;;;12.78
59339;BMP280;45117;50.960;5.500;2022-10-16T06:59:58;100505.72;;;12.77
59339;BMP280;45117;50.960;5.500;2022-10-16T07:02:25;100516.94;;;13.11
59339;BMP280;45117;50.960;5.500;2022-10-16T07:04:51;100514.94;;;14.26
59339;BMP280;45117;50.960;5.500;2022-10-16T07:07:19;100517.63;;;14.67
59339;BMP280;45117;50.960;5.500;2022-10-16T07:09:46;100514.00;;;14.32
59339;BMP280;45117;50.960;5.500;2022-10-16T07:12:12;100515.72;;;14.10
59339;BMP280;45117;50.960;5.500;2022-10-16T07:14:39;100523.34;;;13.99
59339;BMP280;45117;50.960;5.500;2022-10-16T07:17:05;100526.81;;;13.99
59339;BMP280;45117;50.960;5.500;2022-10-16T07:19:32;100531.81;;;14.01
59339;BMP280;45117;50.960;5.500;2022-10-16T07:21:58;100534.50;;;14.01
59339;BMP280;45117;50.960;5.500;2022-10-16T07:24:26;100543.75;;;14.00
59339;BMP280;45117;50.960;5.500;2022-10-16T07:26:53;100532.78;;;14.07
59339;BMP280;45117;50.960;5.500;2022-10-16T07:29:21;100540.78;;;14.10
59339;BMP280;45117;50.960;5.500;2022-10-16T07:31:48;100545.94;;;14.05
59339;BMP280;45117;50.960;5.500;2022-10-16T07:34:17;100553.53;;;14.10
59339;BMP280;45117;50.960;5.500;2022-10-16T07:36:44;100561.84;;;14.16
59339;BMP280;45117;50.960;5.500;2022-10-16T07:39:11;100552.88;;;14.06
59339;BMP280;45117;50.960;5.500;2022-10-16T07:41:39;100559.75;;;14.23
59339;BMP280;45117;50.960;5.500;2022-10-16T07:44:05;100565.47;;;14.25
59339;BMP280;45117;50.960;5.500;2022-10-16T07:46:32;100569.19;;;14.31
59339;BMP280;45117;50.960;5.500;2022-10-16T07:49:01;100571.03;;;14.34
59339;BMP280;45117;50.960;5.500;2022-10-16T07:51:27;100580.09;;;14.57
59339;BMP280;45117;50.960;5.500;2022-10-16T07:53:54;100589.22;;;14.88
59339;BMP280;45117;50.960;5.500;2022-10-16T07:56:21;100600.00;;;15.30
59339;BMP280;45117;50.960;5.500;2022-10-16T07:58:49;100608.53;;;15.79
59339;BMP280;45117;50.960;5.500;2022-10-16T08:01:17;100605.16;;;16.22
59339;BMP280;45117;50.960;5.500;2022-10-16T08:03:44;100612.84;;;16.90
59339;BMP280;45117;50.960;5.500;2022-10-16T08:06:11;100615.69;;;16.86
59339;BMP280;45117;50.960;5.500;2022-10-16T08:08:37;100625.13;;;16.72
59339;BMP280;45117;50.960;5.500;2022-10-16T08:11:04;100621.97;;;16.52
59339;BMP280;45117;50.960;5.500;2022-10-16T08:13:31;100625.06;;;16.63
59339;BMP280;45117;50.960;5.500;2022-10-16T08:15:59;100630.34;;;17.20
59339;BMP280;45117;50.960;5.500;2022-10-16T08:18:25;100633.53;;;17.76
59339;BMP280;45117;50.960;5.500;2022-10-16T08:20:55;100633.44;;;18.17
59339;BMP280;45117;50.960;5.500;2022-10-16T08:23:22;100643.91;;;18.79
59339;BMP280;45117;50.960;5.500;2022-10-16T08:25:48;100640.66;;;18.98
59339;BMP280;45117;50.960;5.500;2022-10-16T08:28:15;100645.78;;;18.63
59339;BMP280;45117;50.960;5.500;2022-10-16T08:30:41;100644.31;;;18.95
59339;BMP280;45117;50.960;5.500;2022-10-16T08:33:09;100653.84;;;19.33
59339;BMP280;45117;50.960;5.500;2022-10-16T08:35:36;100650.13;;;19.21
59339;BMP280;45117;50.960;5.500;2022-10-16T08:38:02;100660.06;;;19.33
59339;BMP280;45117;50.960;5.500;2022-10-16T08:40:30;100661.78;;;19.13
59339;BMP280;45117;50.960;5.500;2022-10-16T08:46:21;100657.03;;;20.03
59339;BMP280;45117;50.960;5.500;2022-10-16T08:48:51;100664.94;;;19.53
59339;BMP280;45117;50.960;5.500;2022-10-16T08:51:22;100675.50;;;19.84
59339;BMP280;45117;50.960;5.500;2022-10-16T08:53:53;100680.41;;;20.19
59339;BMP280;45117;50.960;5.500;2022-10-16T08:56:20;100670.16;;;19.90
59339;BMP280;45117;50.960;5.500;2022-10-16T08:58:47;100682.50;;;19.52
59339;BMP280;45117;50.960;5.500;2022-10-16T09:01:15;100678.28;;;19.99
59339;BMP280;45117;50.960;5.500;2022-10-16T09:03:58;100668.09;;;20.53
59339;BMP280;45117;50.960;5.500;2022-10-16T09:06:37;100678.81;;;19.64
59339;BMP280;45117;50.960;5.500;2022-10-16T09:09:35;100685.06;;;19.56
59339;BMP280;45117;50.960;5.500;2022-10-16T09:12:10;100689.16;;;19.75
59339;BMP280;45117;50.960;5.500;2022-10-16T09:14:50;100675.44;;;20.32
59339;BMP280;45117;50.960;5.500;2022-10-16T09:17:29;100692.19;;;20.84
59339;BMP280;45117;50.960;5.500;2022-10-16T09:20:20;100678.66;;;20.45
59339;BMP280;45117;50.960;5.500;2022-10-16T09:22:48;100685.56;;;20.17
59339;BMP280;45117;50.960;5.500;2022-10-16T09:25:20;100688.53;;;20.57
59339;BMP280;45117;50.960;5.500;2022-10-16T09:27:48;100686.75;;;20.84
59339;BMP280;45117;50.960;5.500;2022-10-16T09:30:20;100685.69;;;20.96
59339;BMP280;45117;50.960;5.500;2022-10-16T09:32:50;100684.63;;;21.08
59339;BMP280;45117;50.960;5.500;2022-10-16T09:35:21;100690.09;;;21.08
59339;BMP280;45117;50.960;5.500;2022-10-16T09:37:51;100686.56;;;21.37
59339;BMP280;45117;50.960;5.500;2022-10-16T09:40:29;100691.84;;;21.61
59339;BMP280;45117;50.960;5.500;2022-10-16T09:43:02;100695.44;;;21.52
59339;BMP280;45117;50.960;5.500;2022-10-16T09:45:29;100684.84;;;20.90
59339;BMP280;45117;50.960;5.500;2022-10-16T09:47:56;100695.28;;;20.47
59339;BMP280;45117;50.960;5.500;2022-10-16T09:50:25;100692.34;;;21.10
59339;BMP280;45117;50.960;5.500;2022-10-16T09:53:08;100693.38;;;21.68
59339;BMP280;45117;50.960;5.500;2022-10-16T09:55:47;100703.56;;;21.87
59339;BMP280;45117;50.960;5.500;2022-10-16T09:58:14;100703.44;;;21.56
59339;BMP280;45117;50.960;5.500;2022-10-16T10:00:41;100709.19;;;21.99
59339;BMP280;45117;50.960;5.500;2022-10-16T10:03:10;100712.13;;;21.19
59339;BMP280;45117;50.960;5.500;2022-10-16T10:05:39;100688.25;;;20.70
59339;BMP280;45117;50.960;5.500;2022-10-16T10:08:06;100701.31;;;21.10
59339;BMP280;45117;50.960;5.500;2022-10-16T10:10:37;100692.91;;;21.89
59339;BMP280;45117;50.960;5.500;2022-10-16T10:13:17;100693.72;;;21.55
59339;BMP280;45117;50.960;5.500;2022-10-16T10:15:45;100692.88;;;21.28
59339;BMP280;45117;50.960;5.500;2022-10-16T10:18:16;100698.16;;;21.32
59339;BMP280;45117;50.960;5.500;2022-10-16T10:20:46;100702.09;;;21.66
59339;BMP280;45117;50.960;5.500;2022-10-16T10:23:24;100711.13;;;21.22
59339;BMP280;45117;50.960;5.500;2022-10-16T10:25:54;100709.56;;;21.51
59339;BMP280;45117;50.960;5.500;2022-10-16T10:28:47;100712.25;;;21.45
59339;BMP280;45117;50.960;5.500;2022-10-16T10:31:21;100727.34;;;21.41
59339;BMP280;45117;50.960;5.500;2022-10-16T10:33:57;100722.00;;;21.52
59339;BMP280;45117;50.960;5.500;2022-10-16T10:36:30;100722.75;;;21.32
59339;BMP280;45117;50.960;5.500;2022-10-16T10:39:00;100722.97;;;20.70
59339;BMP280;45117;50.960;5.500;2022-10-16T10:42:00;100736.59;;;19.92
59339;BMP280;45117;50.960;5.500;2022-10-16T10:44:50;100735.75;;;19.86
59339;BMP280;45117;50.960;5.500;2022-10-16T10:47:29;100730.72;;;19.94
59339;BMP280;45117;50.960;5.500;2022-10-16T10:50:07;100726.66;;;19.56
59339;BMP280;45117;50.960;5.500;2022-10-16T10:52:51;100728.28;;;19.30
59339;BMP280;45117;50.960;5.500;2022-10-16T10:55:23;100725.41;;;19.33
59339;BMP280;45117;50.960;5.500;2022-10-16T10:58:06;100730.97;;;19.39
59339;BMP280;45117;50.960;5.500;2022-10-16T11:00:42;100720.44;;;19.89
59339;BMP280;45117;50.960;5.500;2022-10-16T11:03:21;100728.84;;;20.24
59339;BMP280;45117;50.960;5.500;2022-10-16T11:05:54;100736.44;;;20.20
59339;BMP280;45117;50.960;5.500;2022-10-16T11:08:29;100728.63;;;20.13
59339;BMP280;45117;50.960;5.500;2022-10-16T11:11:00;100737.56;;;19.89
59339;BMP280;45117;50.960;5.500;2022-10-16T11:13:32;100730.75;;;20.09
59339;BMP280;45117;50.960;5.500;2022-10-16T11:16:03;100731.94;;;19.93
59339;BMP280;45117;50.960;5.500;2022-10-16T11:18:40;100730.44;;;19.59
59339;BMP280;45117;50.960;5.500;2022-10-16T11:21:11;100733.97;;;19.74
59339;BMP280;45117;50.960;5.500;2022-10-16T11:23:43;100734.66;;;19.69
59339;BMP280;45117;50.960;5.500;2022-10-16T11:26:17;100725.97;;;19.71
59339;BMP280;45117;50.960;5.500;2022-10-16T11:28:48;100724.72;;;19.48
59339;BMP280;45117;50.960;5.500;2022-10-16T11:31:19;100724.59;;;19.51
59339;BMP280;45117;50.960;5.500;2022-10-16T11:33:51;100724.72;;;19.48
59339;BMP280;45117;50.960;5.500;2022-10-16T11:36:23;100723.75;;;19.69
59339;BMP280;45117;50.960;5.500;2022-10-16T11:38:55;100731.88;;;19.78
59339;BMP280;45117;50.960;5.500;2022-10-16T11:41:28;100735.03;;;20.24
59339;BMP280;45117;50.960;5.500;2022-10-16T11:44:09;100743.16;;;20.33
59339;BMP280;45117;50.960;5.500;2022-10-16T11:46:43;100745.91;;;20.10
59339;BMP280;45117;50.960;5.500;2022-10-16T11:49:15;100728.03;;;20.09
59339;BMP280;45117;50.960;5.500;2022-10-16T11:51:45;100734.78;;;19.98
59339;BMP280;45117;50.960;5.500;2022-10-16T11:54:22;100733.84;;;20.02
59339;BMP280;45117;50.960;5.500;2022-10-16T11:56:56;100726.06;;;19.85
59339;BMP280;45117;50.960;5.500;2022-10-16T11:59:28;100735.28;;;20.12
59339;BMP280;45117;50.960;5.500;2022-10-16T12:02:11;100735.75;;;20.10
59339;BMP280;45117;50.960;5.500;2022-10-16T12:04:45;100725.31;;;20.09
59339;BMP280;45117;50.960;5.500;2022-10-16T12:07:18;100723.00;;;19.68
59339;BMP280;45117;50.960;5.500;2022-10-16T12:09:49;100719.88;;;19.85
59339;BMP280;45117;50.960;5.500;2022-10-16T12:12:24;100735.06;;;19.77
59339;BMP280;45117;50.960;5.500;2022-10-16T12:15:00;100738.09;;;19.69
59339;BMP280;45117;50.960;5.500;2022-10-16T12:17:34;100736.16;;;20.18
59339;BMP280;45117;50.960;5.500;2022-10-16T12:20:19;100722.91;;;20.64
59339;BMP280;45117;50.960;5.500;2022-10-16T12:22:48;100745.78;;;20.28
59339;BMP280;45117;50.960;5.500;2022-10-16T12:25:22;100747.72;;;20.66
59339;BMP280;45117;50.960;5.500;2022-10-16T12:28:01;100750.97;;;20.41
59339;BMP280;45117;50.960;5.500;2022-10-16T12:30:31;100743.53;;;20.17
59339;BMP280;45117;50.960;5.500;2022-10-16T12:32:59;100738.34;;;20.05
59339;BMP280;45117;50.960;5.500;2022-10-16T12:35:29;100747.59;;;20.22
59339;BMP280;45117;50.960;5.500;2022-10-16T12:38:06;100750.22;;;20.40
59339;BMP280;45117;50.960;5.500;2022-10-16T12:40:36;100732.84;;;20.67
59339;BMP280;45117;50.960;5.500;2022-10-16T12:43:13;100724.28;;;20.74
59339;BMP280;45117;50.960;5.500;2022-10-16T12:45:59;100723.03;;;20.46
59339;BMP280;45117;50.960;5.500;2022-10-16T12:48:25;100735.00;;;20.63
59339;BMP280;45117;50.960;5.500;2022-10-16T12:50:52;100720.06;;;20.58
59339;BMP280;45117;50.960;5.500;2022-10-16T12:53:20;100723.63;;;20.26
59339;BMP280;45117;50.960;5.500;2022-10-16T12:55:58;100717.59;;;20.22
59339;BMP280;45117;50.960;5.500;2022-10-16T13:01:25;100725.31;;;20.09
59339;BMP280;45117;50.960;5.500;2022-10-16T13:04:27;100725.84;;;19.98
59339;BMP280;45117;50.960;5.500;2022-10-16T13:07:07;100730.16;;;20.05
59339;BMP280;45117;50.960;5.500;2022-10-16T13:09:45;100728.44;;;20.16
59339;BMP280;45117;50.960;5.500;2022-10-16T13:12:25;100719.00;;;20.03
59339;BMP280;45117;50.960;5.500;2022-10-16T13:15:06;100723.56;;;20.20
59339;BMP280;45117;50.960;5.500;2022-10-16T13:17:41;100726.00;;;19.94
59339;BMP280;45117;50.960;5.500;2022-10-16T13:20:18;100721.38;;;20.10
59339;BMP280;45117;50.960;5.500;2022-10-16T13:22:54;100737.94;;;20.21
59339;BMP280;45117;50.960;5.500;2022-10-16T13:25:31;100745.38;;;20.20
59339;BMP280;45117;50.960;5.500;2022-10-16T13:28:03;100739.09;;;20.05
59339;BMP280;45117;50.960;5.500;2022-10-16T13:30:31;100738.19;;;20.08
59339;BMP280;45117;50.960;5.500;2022-10-16T13:33:01;100748.06;;;20.06
59339;BMP280;45117;50.960;5.500;2022-10-16T13:35:29;100748.66;;;20.00
59339;BMP280;45117;50.960;5.500;2022-10-16T13:38:11;100751.94;;;19.90
59339;BMP280;45117;50.960;5.500;2022-10-16T13:40:48;100750.47;;;20.04
59339;BMP280;45117;50.960;5.500;2022-10-16T13:43:17;100748.50;;;20.04
59339;BMP280;45117;50.960;5.500;2022-10-16T13:45:53;100753.09;;;19.98
59339;BMP280;45117;50.960;5.500;2022-10-16T13:48:19;100747.22;;;20.14
59339;BMP280;45117;50.960;5.500;2022-10-16T13:50:46;100748.16;;;20.11
59339;BMP280;45117;50.960;5.500;2022-10-16T13:53:13;100754.66;;;20.14
59339;BMP280;45117;50.960;5.500;2022-10-16T13:55:40;100753.28;;;19.94
59339;BMP280;45117;50.960;5.500;2022-10-16T13:58:10;100741.47;;;19.88
59339;BMP280;45117;50.960;5.500;2022-10-16T14:00:41;100742.47;;;19.76
59339;BMP280;45117;50.960;5.500;2022-10-16T14:03:19;100738.59;;;19.59
59339;BMP280;45117;50.960;5.500;2022-10-16T14:05:48;100744.06;;;19.59
59339;BMP280;45117;50.960;5.500;2022-10-16T14:08:15;100740.78;;;19.79
59339;BMP280;45117;50.960;5.500;2022-10-16T14:10:42;100740.22;;;19.65
59339;BMP280;45117;50.960;5.500;2022-10-16T14:13:15;100740.50;;;19.44
59339;BMP280;45117;50.960;5.500;2022-10-16T14:15:46;100738.91;;;19.61
59339;BMP280;45117;50.960;5.500;2022-10-16T14:18:18;100749.00;;;19.69